createdAt,value
2017-05-08T00:00:26.080Z,23.1
2017-05-08T00:01:26.353Z,23.13
2017-05-08T00:02:26.130Z,23.13
2017-05-08T00:03:26.162Z,23.12
2017-05-08T00:04:26.197Z,23.13
2017-05-08T00:05:26.216Z,23.1
2017-05-08T00:06:26.498Z,23.12
2017-05-08T00:07:26.269Z,23.12
2017-05-08T00:08:26.299Z,23.12
2017-05-08T00:09:26.333Z,23.1
2017-05-08T00:10:26.357Z,23.12
2017-05-08T00:11:26.629Z,23.09
2017-05-08T00:12:26.401Z,23.1
2017-05-08T00:13:26.436Z,23.07
2017-05-08T00:14:26.471Z,23.05
2017-05-08T00:15:26.491Z,23.07
2017-05-08T00:16:26.767Z,23.04
2017-05-08T00:17:26.545Z,23.1
2017-05-08T00:18:26.574Z,23.01
2017-05-08T00:19:26.603Z,23.05
2017-05-08T00:20:26.315Z,23.07
2017-05-08T00:21:26.661Z,23.04
2017-05-08T00:22:26.693Z,23
2017-05-08T00:23:26.709Z,23.07
2017-05-08T00:24:26.438Z,23.07
2017-05-08T00:25:26.456Z,23.07
2017-05-08T00:26:26.784Z,23.09
2017-05-08T00:27:26.821Z,23.1
2017-05-08T00:28:26.853Z,23.07
2017-05-08T00:29:26.875Z,23.04
2017-05-08T00:30:26.904Z,23.04
2017-05-08T00:31:26.928Z,23.05
2017-05-08T00:32:26.957Z,22.95
2017-05-08T00:33:26.987Z,23.04
2017-05-08T00:34:27.006Z,23.02
2017-05-08T00:35:27.039Z,23.04
2017-05-08T00:36:27.069Z,23.02
2017-05-08T00:37:27.094Z,23.04
2017-05-08T00:38:27.109Z,22.97
2017-05-08T00:39:26.843Z,23.01
2017-05-08T00:40:27.171Z,22.95
2017-05-08T00:41:27.212Z,23
2017-05-08T00:42:26.914Z,23
2017-05-08T00:43:27.261Z,23.01
2017-05-08T00:44:27.333Z,22.97
2017-05-08T00:45:27.307Z,23
2017-05-08T00:46:27.028Z,22.97
2017-05-08T00:47:27.618Z,22.95
2017-05-08T00:48:27.077Z,23.02
2017-05-08T00:49:27.423Z,23.01
2017-05-08T00:50:27.142Z,22.98
2017-05-08T00:51:27.476Z,22.95
2017-05-08T00:52:27.761Z,22.97
2017-05-08T00:53:27.221Z,22.98
2017-05-08T00:54:27.554Z,22.98
2017-05-08T00:55:27.275Z,22.9
2017-05-08T00:56:27.616Z,22.97
2017-05-08T00:57:27.589Z,22.95
2017-05-08T00:58:27.661Z,22.94
2017-05-08T00:59:27.695Z,22.88
2017-05-08T01:00:27.095Z,22.9
2017-05-08T01:01:27.751Z,22.97
2017-05-08T01:02:27.716Z,22.91
2017-05-08T01:03:27.810Z,22.83
2017-05-08T01:04:27.839Z,22.83
2017-05-08T01:05:27.859Z,22.97
2017-05-08T01:06:27.888Z,22.92
2017-05-08T01:07:28.163Z,22.86
2017-05-08T01:08:27.972Z,22.9
2017-05-08T01:09:27.970Z,22.9
2017-05-08T01:10:27.986Z,22.86
2017-05-08T01:11:28.023Z,22.88
2017-05-08T01:12:27.991Z,22.88
2017-05-08T01:13:28.081Z,22.91
2017-05-08T01:14:27.794Z,22.86
2017-05-08T01:15:28.138Z,22.88
2017-05-08T01:16:28.163Z,22.8
2017-05-08T01:17:28.439Z,22.9
2017-05-08T01:18:27.900Z,22.85
2017-05-08T01:19:28.241Z,22.83
2017-05-08T01:20:28.269Z,22.86
2017-05-08T01:21:27.982Z,22.94
2017-05-08T01:22:28.295Z,22.85
2017-05-08T01:23:28.037Z,22.83
2017-05-08T01:24:28.384Z,22.9
2017-05-08T01:25:28.094Z,22.86
2017-05-08T01:26:28.123Z,22.85
2017-05-08T01:27:28.708Z,22.85
2017-05-08T01:28:28.491Z,22.83
2017-05-08T01:29:28.205Z,22.79
2017-05-08T01:30:28.229Z,22.86
2017-05-08T01:31:28.571Z,22.9
2017-05-08T01:32:27.971Z,22.86
2017-05-08T01:33:28.312Z,22.86
2017-05-08T01:34:28.649Z,22.79
2017-05-08T01:35:28.681Z,22.83
2017-05-08T01:36:28.395Z,22.83
2017-05-08T01:37:28.734Z,22.8
2017-05-08T01:38:28.452Z,22.83
2017-05-08T01:39:28.793Z,22.82
2017-05-08T01:40:28.822Z,22.82
2017-05-08T01:41:28.848Z,22.8
2017-05-08T01:42:28.559Z,22.79
2017-05-08T01:43:28.583Z,22.79
2017-05-08T01:44:28.933Z,22.79
2017-05-08T01:45:28.957Z,22.76
2017-05-08T01:46:28.985Z,22.8
2017-05-08T01:47:28.998Z,22.77
2017-05-08T01:48:28.728Z,22.82
2017-05-08T01:49:29.061Z,22.8
2017-05-08T01:50:29.093Z,22.79
2017-05-08T01:51:28.805Z,22.85
2017-05-08T01:52:29.144Z,22.79
2017-05-08T01:53:28.859Z,22.76
2017-05-08T01:54:29.223Z,22.75
2017-05-08T01:55:28.921Z,22.79
2017-05-08T01:56:28.941Z,22.76
2017-05-08T01:57:29.280Z,22.77
2017-05-08T01:58:29.558Z,22.72
2017-05-08T01:59:29.327Z,22.73
2017-05-08T02:00:29.048Z,22.73
2017-05-08T02:01:29.074Z,22.82
2017-05-08T02:02:29.102Z,22.75
2017-05-08T02:03:29.689Z,22.73
2017-05-08T02:04:29.464Z,22.73
2017-05-08T02:05:29.184Z,22.75
2017-05-08T02:06:29.524Z,22.75
2017-05-08T02:07:29.238Z,22.73
2017-05-08T02:08:29.822Z,22.77
2017-05-08T02:09:29.603Z,22.72
2017-05-08T02:10:29.320Z,22.72
2017-05-08T02:11:29.657Z,22.75
2017-05-08T02:12:29.687Z,22.77
2017-05-08T02:13:29.970Z,22.7
2017-05-08T02:14:29.435Z,22.76
2017-05-08T02:15:29.455Z,22.75
2017-05-08T02:16:29.168Z,22.77
2017-05-08T02:17:29.825Z,22.75
2017-05-08T02:18:30.106Z,22.77
2017-05-08T02:19:29.558Z,22.7
2017-05-08T02:20:29.595Z,22.75
2017-05-08T02:21:29.932Z,22.77
2017-05-08T02:22:29.641Z,22.73
2017-05-08T02:23:30.239Z,22.65
2017-05-08T02:24:30.017Z,22.72
2017-05-08T02:25:30.040Z,22.75
2017-05-08T02:26:30.068Z,22.73
2017-05-08T02:27:29.779Z,22.73
2017-05-08T02:28:30.378Z,22.75
2017-05-08T02:29:30.153Z,22.75
2017-05-08T02:30:30.180Z,22.7
2017-05-08T02:31:29.889Z,22.73
2017-05-08T02:32:30.238Z,22.75
2017-05-08T02:33:30.193Z,22.65
2017-05-08T02:34:30.289Z,22.67
2017-05-08T02:35:30.314Z,22.72
2017-05-08T02:36:30.030Z,22.73
2017-05-08T02:37:30.366Z,22.7
2017-05-08T02:38:30.329Z,22.72
2017-05-08T02:39:30.425Z,22.73
2017-05-08T02:40:30.448Z,22.7
2017-05-08T02:41:30.476Z,22.72
2017-05-08T02:42:30.197Z,22.75
2017-05-08T02:43:30.789Z,22.7
2017-05-08T02:44:30.558Z,22.68
2017-05-08T02:45:30.579Z,22.72
2017-05-08T02:46:30.610Z,22.61
2017-05-08T02:47:30.640Z,22.7
2017-05-08T02:48:30.351Z,22.73
2017-05-08T02:49:30.686Z,22.7
2017-05-08T02:50:30.715Z,22.67
2017-05-08T02:51:30.439Z,22.65
2017-05-08T02:52:30.777Z,22.72
2017-05-08T02:53:30.829Z,22.65
2017-05-08T02:54:30.561Z,22.61
2017-05-08T02:55:30.850Z,22.68
2017-05-08T02:56:30.879Z,22.7
2017-05-08T02:57:30.595Z,22.61
2017-05-08T02:58:30.632Z,22.75
2017-05-08T02:59:30.966Z,22.75
2017-05-08T03:00:30.990Z,22.67
2017-05-08T03:01:31.016Z,22.72
2017-05-08T03:02:31.047Z,22.72
2017-05-08T03:03:31.081Z,22.67
2017-05-08T03:04:31.097Z,22.61
2017-05-08T03:05:31.126Z,22.68
2017-05-08T03:06:30.851Z,22.72
2017-05-08T03:07:31.224Z,22.58
2017-05-08T03:08:30.904Z,22.7
2017-05-08T03:09:31.241Z,22.64
2017-05-08T03:10:31.267Z,22.67
2017-05-08T03:11:31.291Z,22.65
2017-05-08T03:12:31.016Z,22.6
2017-05-08T03:13:31.350Z,22.61
2017-05-08T03:14:30.745Z,22.6
2017-05-08T03:15:30.778Z,22.67
2017-05-08T03:16:31.428Z,22.58
2017-05-08T03:17:31.459Z,22.62
2017-05-08T03:18:30.852Z,22.57
2017-05-08T03:19:30.884Z,22.64
2017-05-08T03:20:30.913Z,22.61
2017-05-08T03:21:32.468Z,22.67
2017-05-08T03:22:31.280Z,22.62
2017-05-08T03:23:31.615Z,22.58
2017-05-08T03:24:31.647Z,22.6
2017-05-08T03:25:31.674Z,22.62
2017-05-08T03:26:31.698Z,22.65
2017-05-08T03:27:31.416Z,22.61
2017-05-08T03:28:31.755Z,22.65
2017-05-08T03:29:31.713Z,22.64
2017-05-08T03:30:31.809Z,22.64
2017-05-08T03:31:31.833Z,22.62
2017-05-08T03:32:31.867Z,22.57
2017-05-08T03:33:31.579Z,22.65
2017-05-08T03:34:32.173Z,22.65
2017-05-08T03:35:31.943Z,22.65
2017-05-08T03:36:31.964Z,22.65
2017-05-08T03:37:31.681Z,22.62
2017-05-08T03:38:31.720Z,22.67
2017-05-08T03:39:32.295Z,22.55
2017-05-08T03:40:31.764Z,22.58
2017-05-08T03:41:32.101Z,22.61
2017-05-08T03:42:31.818Z,22.64
2017-05-08T03:43:32.171Z,22.64
2017-05-08T03:44:32.436Z,22.65
2017-05-08T03:45:31.904Z,22.61
2017-05-08T03:46:31.925Z,22.57
2017-05-08T03:47:32.278Z,22.62
2017-05-08T03:48:32.296Z,22.58
2017-05-08T03:49:32.572Z,22.52
2017-05-08T03:50:32.351Z,22.58
2017-05-08T03:51:32.062Z,22.6
2017-05-08T03:52:32.406Z,22.61
2017-05-08T03:53:32.115Z,22.61
2017-05-08T03:54:32.708Z,22.62
2017-05-08T03:55:32.495Z,22.6
2017-05-08T03:56:32.518Z,22.62
2017-05-08T03:57:32.546Z,22.6
2017-05-08T03:58:32.558Z,22.58
2017-05-08T03:59:32.843Z,22.57
2017-05-08T04:00:32.655Z,22.61
2017-05-08T04:01:32.342Z,22.61
2017-05-08T04:02:32.356Z,22.58
2017-05-08T04:03:32.387Z,22.54
2017-05-08T04:04:32.670Z,22.58
2017-05-08T04:05:32.755Z,22.64
2017-05-08T04:06:32.783Z,22.61
2017-05-08T04:07:32.496Z,22.58
2017-05-08T04:08:32.523Z,22.58
2017-05-08T04:09:32.803Z,22.45
2017-05-08T04:10:32.582Z,22.57
2017-05-08T04:11:32.603Z,22.61
2017-05-08T04:12:32.940Z,22.54
2017-05-08T04:13:32.667Z,22.54
2017-05-08T04:14:32.937Z,22.52
2017-05-08T04:15:33.027Z,22.6
2017-05-08T04:16:32.742Z,22.57
2017-05-08T04:17:32.759Z,22.61
2017-05-08T04:18:33.146Z,22.52
2017-05-08T04:19:33.384Z,22.54
2017-05-08T04:20:32.852Z,22.47
2017-05-08T04:21:32.876Z,22.64
2017-05-08T04:22:33.213Z,22.54
2017-05-08T04:23:33.282Z,22.6
2017-05-08T04:24:33.238Z,22.62
2017-05-08T04:25:33.303Z,22.52
2017-05-08T04:26:33.015Z,22.58
2017-05-08T04:27:33.355Z,22.6
2017-05-08T04:28:33.378Z,22.61
2017-05-08T04:29:33.352Z,22.6
2017-05-08T04:30:33.431Z,22.57
2017-05-08T04:31:33.145Z,22.62
2017-05-08T04:32:32.869Z,22.62
2017-05-08T04:33:33.509Z,22.61
2017-05-08T04:34:33.174Z,22.62
2017-05-08T04:35:33.567Z,22.57
2017-05-08T04:36:33.600Z,22.58
2017-05-08T04:37:33.305Z,22.58
2017-05-08T04:38:33.654Z,22.58
2017-05-08T04:39:33.937Z,22.67
2017-05-08T04:40:33.707Z,22.65
2017-05-08T04:41:33.423Z,22.62
2017-05-08T04:42:33.760Z,22.6
2017-05-08T04:43:33.778Z,22.61
2017-05-08T04:44:34.069Z,22.65
2017-05-08T04:45:33.526Z,22.61
2017-05-08T04:46:33.867Z,22.72
2017-05-08T04:47:33.588Z,22.7
2017-05-08T04:48:33.917Z,22.75
2017-05-08T04:49:33.634Z,22.7
2017-05-08T04:50:33.662Z,22.64
2017-05-08T04:51:33.691Z,22.7
2017-05-08T04:52:34.032Z,22.73
2017-05-08T04:53:34.053Z,22.75
2017-05-08T04:54:34.081Z,22.75
2017-05-08T04:55:34.110Z,22.8
2017-05-08T04:56:34.147Z,22.72
2017-05-08T04:57:34.160Z,22.72
2017-05-08T04:58:34.184Z,22.76
2017-05-08T04:59:34.223Z,22.75
2017-05-08T05:00:34.243Z,22.77
2017-05-08T05:01:33.962Z,22.79
2017-05-08T05:02:34.301Z,22.79
2017-05-08T05:03:34.023Z,22.82
2017-05-08T05:04:33.730Z,22.8
2017-05-08T05:05:34.326Z,22.86
2017-05-08T05:06:34.098Z,22.85
2017-05-08T05:07:34.439Z,22.85
2017-05-08T05:08:34.152Z,22.9
2017-05-08T05:09:34.494Z,22.83
2017-05-08T05:10:34.774Z,22.88
2017-05-08T05:11:34.542Z,22.83
2017-05-08T05:12:34.259Z,22.85
2017-05-08T05:13:33.976Z,22.86
2017-05-08T05:14:34.621Z,22.86
2017-05-08T05:15:34.585Z,22.98
2017-05-08T05:16:34.686Z,23
2017-05-08T05:17:34.699Z,22.94
2017-05-08T05:18:34.423Z,23.05
2017-05-08T05:19:34.444Z,23.07
2017-05-08T05:20:35.037Z,23.09
2017-05-08T05:21:34.498Z,23.01
2017-05-08T05:22:34.840Z,23.02
2017-05-08T05:23:34.558Z,23.09
2017-05-08T05:24:34.584Z,23.09
2017-05-08T05:25:35.179Z,23.13
2017-05-08T05:26:34.954Z,23.05
2017-05-08T05:27:34.984Z,23.15
2017-05-08T05:28:35.011Z,23.16
2017-05-08T05:29:35.030Z,23.16
2017-05-08T05:30:35.001Z,23.22
2017-05-08T05:31:35.094Z,23.13
2017-05-08T05:32:35.120Z,23.23
2017-05-08T05:33:35.143Z,23.23
2017-05-08T05:34:35.180Z,23.23
2017-05-08T05:35:35.144Z,23.23
2017-05-08T05:36:35.234Z,23.23
2017-05-08T05:37:34.944Z,23.23
2017-05-08T05:38:35.275Z,23.31
2017-05-08T05:39:35.305Z,23.28
2017-05-08T05:40:35.589Z,23.23
2017-05-08T05:41:35.091Z,23.31
2017-05-08T05:42:35.379Z,23.33
2017-05-08T05:43:35.419Z,23.42
2017-05-08T05:44:35.444Z,23.39
2017-05-08T05:45:35.730Z,23.39
2017-05-08T05:46:35.502Z,23.4
2017-05-08T05:47:35.533Z,23.42
2017-05-08T05:48:35.564Z,23.38
2017-05-08T05:49:35.579Z,23.36
2017-05-08T05:50:35.548Z,23.5
2017-05-08T05:51:35.010Z,23.42
2017-05-08T05:52:35.666Z,23.53
2017-05-08T05:53:35.687Z,23.46
2017-05-08T05:54:35.720Z,23.46
2017-05-08T05:55:35.992Z,23.5
2017-05-08T05:56:35.773Z,23.5
2017-05-08T05:57:35.798Z,23.42
2017-05-08T05:58:35.831Z,23.5
2017-05-08T05:59:35.545Z,23.51
2017-05-08T06:00:35.563Z,23.46
2017-05-08T06:01:35.602Z,23.53
2017-05-08T06:02:35.940Z,23.53
2017-05-08T06:03:35.655Z,23.53
2017-05-08T06:04:35.684Z,23.43
2017-05-08T06:05:36.020Z,23.55
2017-05-08T06:06:36.048Z,23.54
2017-05-08T06:07:35.763Z,23.53
2017-05-08T06:08:36.104Z,23.53
2017-05-08T06:09:36.131Z,23.58
2017-05-08T06:10:36.169Z,23.53
2017-05-08T06:11:36.189Z,23.58
2017-05-08T06:12:35.911Z,23.54
2017-05-08T06:13:35.928Z,23.51
2017-05-08T06:14:36.266Z,23.54
2017-05-08T06:15:36.300Z,23.58
2017-05-08T06:16:36.329Z,23.54
2017-05-08T06:17:36.353Z,23.58
2017-05-08T06:18:36.379Z,23.5
2017-05-08T06:19:36.411Z,23.53
2017-05-08T06:20:36.128Z,23.51
2017-05-08T06:21:36.149Z,23.5
2017-05-08T06:22:36.505Z,23.55
2017-05-08T06:23:36.547Z,23.42
2017-05-08T06:24:36.539Z,23.51
2017-05-08T06:25:36.260Z,23.46
2017-05-08T06:26:36.604Z,23.47
2017-05-08T06:27:36.319Z,23.53
2017-05-08T06:28:36.654Z,23.54
2017-05-08T06:29:36.370Z,23.54
2017-05-08T06:30:36.715Z,23.54
2017-05-08T06:31:36.736Z,23.51
2017-05-08T06:32:36.762Z,23.53
2017-05-08T06:33:36.789Z,23.43
2017-05-08T06:34:36.820Z,23.55
2017-05-08T06:35:36.846Z,23.51
2017-05-08T06:36:36.872Z,23.51
2017-05-08T06:37:36.903Z,23.53
2017-05-08T06:38:36.627Z,23.55
2017-05-08T06:39:36.956Z,23.46
2017-05-08T06:40:36.667Z,23.46
2017-05-08T06:41:36.944Z,23.47
2017-05-08T06:42:36.724Z,23.43
2017-05-08T06:43:36.763Z,23.43
2017-05-08T06:44:36.783Z,23.48
2017-05-08T06:45:36.488Z,23.47
2017-05-08T06:46:37.395Z,23.47
2017-05-08T06:47:36.865Z,23.47
2017-05-08T06:48:37.211Z,23.47
2017-05-08T06:49:37.227Z,23.5
2017-05-08T06:50:36.944Z,23.39
2017-05-08T06:51:37.226Z,23.43
2017-05-08T06:52:37.312Z,23.47
2017-05-08T06:53:37.342Z,23.46
2017-05-08T06:54:37.371Z,23.35
2017-05-08T06:55:37.392Z,23.42
2017-05-08T06:56:37.364Z,23.4
2017-05-08T06:57:37.132Z,23.43
2017-05-08T06:58:37.489Z,23.36
2017-05-08T06:59:37.507Z,23.38
2017-05-08T07:00:37.242Z,23.42
2017-05-08T07:01:37.815Z,23.42
2017-05-08T07:02:37.279Z,23.38
2017-05-08T07:03:37.306Z,23.42
2017-05-08T07:04:37.334Z,23.31
2017-05-08T07:05:37.662Z,23.35
2017-05-08T07:06:37.943Z,23.31
2017-05-08T07:07:37.412Z,23.32
2017-05-08T07:08:37.757Z,23.31
2017-05-08T07:09:37.465Z,23.32
2017-05-08T07:10:37.804Z,23.36
2017-05-08T07:11:38.087Z,23.36
2017-05-08T07:12:37.864Z,23.28
2017-05-08T07:13:37.889Z,23.39
2017-05-08T07:14:37.914Z,23.32
2017-05-08T07:15:37.941Z,23.27
2017-05-08T07:16:38.219Z,23.31
2017-05-08T07:17:38.004Z,23.28
2017-05-08T07:18:37.718Z,23.27
2017-05-08T07:19:38.055Z,23.28
2017-05-08T07:20:37.767Z,23.2
2017-05-08T07:21:38.362Z,23.23
2017-05-08T07:22:37.511Z,23.27
2017-05-08T07:23:38.166Z,23.25
2017-05-08T07:24:38.186Z,23.25
2017-05-08T07:25:38.215Z,23.23
2017-05-08T07:26:37.878Z,23.22
2017-05-08T07:27:38.295Z,23.22
2017-05-08T07:28:37.996Z,23.27
2017-05-08T07:29:38.329Z,23.25
2017-05-08T07:30:38.351Z,23.23
2017-05-08T07:31:38.634Z,23.23
2017-05-08T07:32:38.092Z,23.22
2017-05-08T07:33:38.130Z,23.27
2017-05-08T07:34:38.153Z,23.25
2017-05-08T07:35:37.871Z,23.27
2017-05-08T07:36:38.462Z,23.27
2017-05-08T07:37:37.923Z,23.23
2017-05-08T07:38:38.577Z,23.15
2017-05-08T07:39:38.281Z,23.16
2017-05-08T07:40:38.630Z,23.23
2017-05-08T07:41:38.914Z,23.13
2017-05-08T07:42:38.683Z,23.19
2017-05-08T07:43:38.712Z,23.17
2017-05-08T07:44:38.741Z,23.15
2017-05-08T07:45:38.798Z,23.2
2017-05-08T07:46:38.795Z,23.13
2017-05-08T07:47:38.523Z,23.17
2017-05-08T07:48:38.847Z,23.13
2017-05-08T07:49:38.877Z,23.19
2017-05-08T07:50:38.599Z,23.17
2017-05-08T07:51:38.931Z,23.15
2017-05-08T07:52:38.647Z,23.2
2017-05-08T07:53:38.983Z,23.22
2017-05-08T07:54:38.701Z,23.12
2017-05-08T07:55:39.042Z,23.16
2017-05-08T07:56:38.755Z,23.13
2017-05-08T07:57:38.783Z,23.12
2017-05-08T07:58:39.125Z,23.12
2017-05-08T07:59:38.840Z,23.05
2017-05-08T08:00:38.869Z,23.15
2017-05-08T08:01:39.206Z,23.09
2017-05-08T08:02:39.231Z,23.09
2017-05-08T08:03:38.951Z,23.12
2017-05-08T08:04:39.290Z,23.07
2017-05-08T08:05:39.318Z,23.07
2017-05-08T08:06:39.346Z,23.16
2017-05-08T08:07:39.058Z,23.05
2017-05-08T08:08:39.399Z,23.09
2017-05-08T08:09:39.424Z,23.05
2017-05-08T08:10:39.456Z,23.12
2017-05-08T08:11:39.469Z,23
2017-05-08T08:12:39.199Z,23.04
2017-05-08T08:13:39.531Z,23.01
2017-05-08T08:14:39.252Z,23.01
2017-05-08T08:15:39.592Z,23.01
2017-05-08T08:16:39.614Z,23.02
2017-05-08T08:17:39.651Z,23.07
2017-05-08T08:18:39.672Z,23.05
2017-05-08T08:19:39.695Z,23.07
2017-05-08T08:20:39.106Z,23.04
2017-05-08T08:21:39.746Z,23.04
2017-05-08T08:22:39.778Z,23.07
2017-05-08T08:23:39.808Z,23.04
2017-05-08T08:24:39.836Z,23.02
2017-05-08T08:25:39.872Z,23.04
2017-05-08T08:26:39.577Z,22.91
2017-05-08T08:27:39.859Z,23.05
2017-05-08T08:28:39.642Z,23.07
2017-05-08T08:29:39.657Z,23.02
2017-05-08T08:30:39.685Z,23.05
2017-05-08T08:31:40.022Z,22.98
2017-05-08T08:32:40.337Z,23.1
2017-05-08T08:33:40.083Z,23.04
2017-05-08T08:34:39.795Z,23.02
2017-05-08T08:35:40.143Z,22.97
2017-05-08T08:36:40.161Z,23.04
2017-05-08T08:37:40.441Z,23.01
2017-05-08T08:38:40.226Z,22.98
2017-05-08T08:39:40.251Z,22.97
2017-05-08T08:40:40.267Z,22.98
2017-05-08T08:41:39.983Z,22.92
2017-05-08T08:42:40.582Z,23.01
2017-05-08T08:43:40.355Z,23.01
2017-05-08T08:44:40.378Z,22.98
2017-05-08T08:45:40.107Z,22.91
2017-05-08T08:46:39.813Z,22.91
2017-05-08T08:47:40.095Z,23.02
2017-05-08T08:48:40.489Z,22.98
2017-05-08T08:49:40.519Z,22.98
2017-05-08T08:50:40.535Z,22.94
2017-05-08T08:51:40.261Z,22.94
2017-05-08T08:52:40.852Z,22.95
2017-05-08T08:53:40.622Z,22.98
2017-05-08T08:54:40.654Z,22.91
2017-05-08T08:55:40.678Z,22.94
2017-05-08T08:56:40.712Z,22.95
2017-05-08T08:57:40.986Z,22.94
2017-05-08T08:58:40.452Z,22.98
2017-05-08T08:59:40.491Z,22.98
2017-05-08T09:00:40.826Z,22.95
2017-05-08T09:01:40.847Z,22.91
2017-05-08T09:02:41.129Z,23.02
2017-05-08T09:03:40.910Z,22.98
2017-05-08T09:04:40.619Z,22.98
2017-05-08T09:05:40.967Z,22.95
2017-05-08T09:06:40.367Z,22.95
2017-05-08T09:07:40.954Z,23.02
2017-05-08T09:08:41.038Z,22.98
2017-05-08T09:09:40.754Z,23.01
2017-05-08T09:10:41.086Z,22.98
2017-05-08T09:11:41.124Z,22.94
2017-05-08T09:12:41.091Z,23.01
2017-05-08T09:13:41.186Z,22.98
2017-05-08T09:14:41.202Z,23.07
2017-05-08T09:15:40.918Z,23.04
2017-05-08T09:16:41.259Z,23.02
2017-05-08T09:17:41.230Z,23.04
2017-05-08T09:18:40.996Z,23.05
2017-05-08T09:19:41.029Z,23.01
2017-05-08T09:20:41.053Z,23.02
2017-05-08T09:21:41.388Z,23.02
2017-05-08T09:22:41.671Z,23.01
2017-05-08T09:23:41.137Z,23.01
2017-05-08T09:24:41.477Z,22.91
2017-05-08T09:25:41.190Z,23.05
2017-05-08T09:26:41.218Z,23.02
2017-05-08T09:27:41.797Z,23.05
2017-05-08T09:28:41.272Z,23.05
2017-05-08T09:29:40.977Z,23.01
2017-05-08T09:30:41.645Z,23.07
2017-05-08T09:31:41.359Z,23.04
2017-05-08T09:32:41.938Z,23.02
2017-05-08T09:33:41.719Z,23.02
2017-05-08T09:34:41.747Z,23.02
2017-05-08T09:35:41.466Z,23.04
2017-05-08T09:36:41.798Z,22.97
2017-05-08T09:37:41.825Z,22.94
2017-05-08T09:38:41.863Z,23.05
2017-05-08T09:39:41.574Z,23
2017-05-08T09:40:41.609Z,23
2017-05-08T09:41:41.633Z,23.05
2017-05-08T09:42:41.963Z,23.01
2017-05-08T09:43:41.996Z,23
2017-05-08T09:44:42.030Z,23.04
2017-05-08T09:45:42.046Z,22.95
2017-05-08T09:46:42.077Z,23.05
2017-05-08T09:47:41.483Z,23.02
2017-05-08T09:48:42.132Z,23.09
2017-05-08T09:49:42.164Z,23.05
2017-05-08T09:50:41.873Z,23.05
2017-05-08T09:51:42.222Z,23.02
2017-05-08T09:52:42.244Z,23.04
2017-05-08T09:53:42.270Z,23
2017-05-08T09:54:42.301Z,22.98
2017-05-08T09:55:42.318Z,23.04
2017-05-08T09:56:42.042Z,23.04
2017-05-08T09:57:42.059Z,23.02
2017-05-08T09:58:42.406Z,23.05
2017-05-08T09:59:42.429Z,23.02
2017-05-08T10:00:42.459Z,23.02
2017-05-08T10:01:42.485Z,23.04
2017-05-08T10:02:42.514Z,23.02
2017-05-08T10:03:42.266Z,22.97
2017-05-08T10:04:42.567Z,23.05
2017-05-08T10:05:42.286Z,23
2017-05-08T10:06:42.306Z,22.97
2017-05-08T10:07:42.338Z,23.02
2017-05-08T10:08:42.374Z,23.07
2017-05-08T10:09:42.393Z,23.04
2017-05-08T10:10:42.418Z,23.07
2017-05-08T10:11:42.757Z,23.07
2017-05-08T10:12:42.474Z,23.07
2017-05-08T10:13:42.819Z,23.07
2017-05-08T10:14:42.531Z,23.05
2017-05-08T10:15:42.551Z,23.04
2017-05-08T10:16:42.590Z,23.07
2017-05-08T10:17:42.930Z,22.97
2017-05-08T10:18:42.631Z,23.07
2017-05-08T10:19:42.983Z,23.04
2017-05-08T10:20:42.688Z,23.07
2017-05-08T10:21:42.721Z,23.04
2017-05-08T10:22:42.758Z,23.02
2017-05-08T10:23:43.091Z,23.02
2017-05-08T10:24:42.809Z,23.09
2017-05-08T10:25:43.148Z,23.02
2017-05-08T10:26:43.173Z,23.02
2017-05-08T10:27:43.200Z,23.07
2017-05-08T10:28:43.230Z,23.07
2017-05-08T10:29:43.255Z,23.07
2017-05-08T10:30:43.287Z,23.1
2017-05-08T10:31:43.305Z,23.04
2017-05-08T10:32:43.337Z,23.07
2017-05-08T10:33:43.305Z,22.98
2017-05-08T10:34:42.770Z,23.02
2017-05-08T10:35:43.420Z,23.02
2017-05-08T10:36:43.448Z,23.07
2017-05-08T10:37:43.475Z,23.02
2017-05-08T10:38:43.749Z,22.98
2017-05-08T10:39:43.219Z,23.07
2017-05-08T10:40:43.564Z,23.02
2017-05-08T10:41:43.585Z,23.02
2017-05-08T10:42:43.625Z,23
2017-05-08T10:43:43.889Z,23.07
2017-05-08T10:44:43.347Z,23.05
2017-05-08T10:45:43.379Z,23.02
2017-05-08T10:46:43.724Z,23.04
2017-05-08T10:47:43.441Z,23
2017-05-08T10:48:44.022Z,23.05
2017-05-08T10:49:43.181Z,23
2017-05-08T10:50:43.836Z,23.04
2017-05-08T10:51:43.855Z,23.01
2017-05-08T10:52:43.890Z,23.12
2017-05-08T10:53:43.857Z,23.15
2017-05-08T10:54:43.634Z,23.07
2017-05-08T10:55:43.970Z,23.07
2017-05-08T10:56:43.989Z,23.1
2017-05-08T10:57:44.028Z,23.09
2017-05-08T10:58:44.305Z,23.07
2017-05-08T10:59:43.813Z,23.09
2017-05-08T11:00:44.106Z,23.07
2017-05-08T11:01:44.131Z,23.15
2017-05-08T11:02:44.162Z,23.05
2017-05-08T11:03:44.436Z,23.1
2017-05-08T11:04:44.217Z,23.05
2017-05-08T11:05:44.238Z,23.05
2017-05-08T11:06:44.272Z,23.12
2017-05-08T11:07:44.297Z,23.02
2017-05-08T11:08:43.980Z,23.09
2017-05-08T11:09:44.041Z,23.09
2017-05-08T11:10:44.381Z,23.02
2017-05-08T11:11:44.098Z,23.05
2017-05-08T11:12:44.135Z,23.04
2017-05-08T11:13:44.715Z,23.02
2017-05-08T11:14:44.494Z,23.1
2017-05-08T11:15:44.210Z,23.02
2017-05-08T11:16:44.543Z,23.07
2017-05-08T11:17:44.263Z,23.07
2017-05-08T11:18:44.544Z,23.07
2017-05-08T11:19:44.630Z,23.05
2017-05-08T11:20:44.658Z,23.12
2017-05-08T11:21:44.369Z,23
2017-05-08T11:22:44.719Z,23.07
2017-05-08T11:23:44.991Z,23.04
2017-05-08T11:24:44.769Z,23.09
2017-05-08T11:25:44.796Z,23.05
2017-05-08T11:26:44.506Z,22.97
2017-05-08T11:27:44.843Z,23.05
2017-05-08T11:28:45.124Z,23
2017-05-08T11:29:44.588Z,23.04
2017-05-08T11:30:44.312Z,23.07
2017-05-08T11:31:44.645Z,23.05
2017-05-08T11:32:44.988Z,23.05
2017-05-08T11:33:45.266Z,23.07
2017-05-08T11:34:45.049Z,23.07
2017-05-08T11:35:44.749Z,23.07
2017-05-08T11:36:45.093Z,23.05
2017-05-08T11:37:45.122Z,23.02
2017-05-08T11:38:45.402Z,23
2017-05-08T11:39:45.180Z,23.01
2017-05-08T11:40:44.892Z,23.04
2017-05-08T11:41:45.230Z,23.07
2017-05-08T11:42:45.265Z,23.1
2017-05-08T11:43:45.539Z,23.09
2017-05-08T11:44:45.315Z,23.02
2017-05-08T11:45:45.344Z,23.05
2017-05-08T11:46:45.372Z,23.07
2017-05-08T11:47:45.418Z,23.07
2017-05-08T11:48:45.365Z,22.98
2017-05-08T11:49:45.459Z,22.97
2017-05-08T11:50:45.481Z,23.04
2017-05-08T11:51:45.195Z,23.05
2017-05-08T11:52:45.538Z,23.02
2017-05-08T11:53:45.819Z,23.07
2017-05-08T11:54:45.591Z,23.1
2017-05-08T11:55:45.621Z,23.12
2017-05-08T11:56:45.341Z,23.05
2017-05-08T11:57:45.709Z,23.05
2017-05-08T11:58:45.950Z,23.09
2017-05-08T11:59:45.728Z,23.13
2017-05-08T12:00:45.446Z,23.13
2017-05-08T12:01:45.467Z,23.15
2017-05-08T12:02:45.810Z,23.05
2017-05-08T12:03:45.530Z,23.1
2017-05-08T12:04:45.863Z,23.13
2017-05-08T12:05:45.892Z,23.09
2017-05-08T12:06:45.609Z,23.09
2017-05-08T12:07:45.948Z,23.05
2017-05-08T12:08:45.667Z,23.25
2017-05-08T12:09:46.002Z,23.1
2017-05-08T12:10:45.719Z,23.09
2017-05-08T12:11:45.431Z,23.15
2017-05-08T12:12:46.084Z,23.15
2017-05-08T12:13:45.801Z,23.04
2017-05-08T12:14:46.142Z,23.07
2017-05-08T12:15:46.169Z,23.02
2017-05-08T12:16:45.884Z,23
2017-05-08T12:17:45.913Z,23.01
2017-05-08T12:18:46.246Z,23.04
2017-05-08T12:19:46.279Z,23.04
2017-05-08T12:20:46.304Z,23.04
2017-05-08T12:21:46.332Z,23.04
2017-05-08T12:22:46.358Z,23.05
2017-05-08T12:23:46.069Z,23.04
2017-05-08T12:24:46.669Z,23.07
2017-05-08T12:25:46.443Z,23.02
2017-05-08T12:26:46.495Z,23
2017-05-08T12:27:46.186Z,23.04
2017-05-08T12:28:45.894Z,22.98
2017-05-08T12:29:46.802Z,23.05
2017-05-08T12:30:46.592Z,23.01
2017-05-08T12:31:46.609Z,23.02
2017-05-08T12:32:46.341Z,22.97
2017-05-08T12:33:46.349Z,23.01
2017-05-08T12:34:46.943Z,22.95
2017-05-08T12:35:46.740Z,22.85
2017-05-08T12:36:46.750Z,22.91
2017-05-08T12:37:46.150Z,22.82
2017-05-08T12:38:46.801Z,22.94
2017-05-08T12:39:46.451Z,22.91
2017-05-08T12:40:46.543Z,22.85
2017-05-08T12:41:46.884Z,22.9
2017-05-08T12:42:46.601Z,22.9
2017-05-08T12:43:46.626Z,22.83
2017-05-08T12:44:46.906Z,22.86
2017-05-08T12:45:47.002Z,22.88
2017-05-08T12:46:47.019Z,22.88
2017-05-08T12:47:46.743Z,22.9
2017-05-08T12:48:46.760Z,22.83
2017-05-08T12:49:47.353Z,22.91
2017-05-08T12:50:47.133Z,22.88
2017-05-08T12:51:46.855Z,22.88
2017-05-08T12:52:47.184Z,22.95
2017-05-08T12:53:46.907Z,22.86
2017-05-08T12:54:47.164Z,22.85
2017-05-08T12:55:47.267Z,22.86
2017-05-08T12:56:47.296Z,22.92